Time;durP1;ratioP1;P1;durP2;ratioP2;P2;SDS_P1;SDS_P2;PMS_P1;PMS_P2;Temp;Humidity;BMP_temperature;BMP_pressure;BME280_temperature;BME280_humidity;BME280_pressure;Samples;Min_cycle;Max_cycle;Signal;HPM_P1;HPM_P2
2022/11/12 06:03:43;;;;;;;11.43;7.88;;;;;;;6.50;99.21;103052.47;5035753;28;20508;-74
2022/11/12 06:06:08;;;;;;;9.90;7.82;;;;;;;6.62;98.70;103058.44;5043409;28;20127;-74
2022/11/12 06:08:34;;;;;;;8.43;6.90;;;;;;;6.62;98.79;103050.09;5039289;28;20131;-74
2022/11/12 06:10:59;;;;;;;9.23;6.95;;;;;;;6.59;99.04;103049.84;5016831;28;20033;-73
2022/11/12 06:13:25;;;;;;;9.57;7.68;;;;;;;6.53;98.44;103049.06;5094279;22;20537;-74
2022/11/12 06:15:52;;;;;;;9.55;7.40;;;;;;;6.45;98.78;103049.72;5076386;28;20494;-74
2022/11/12 06:18:18;;;;;;;8.20;6.63;;;;;;;6.57;98.45;103052.09;5074457;28;20039;-74
2022/11/12 06:20:43;;;;;;;9.25;7.75;;;;;;;6.54;97.97;103053.53;5074500;28;20035;-74
2022/11/12 06:23:08;;;;;;;11.18;9.38;;;;;;;6.50;98.17;103066.38;5076863;28;20035;-75
2022/11/12 06:25:34;;;;;;;9.48;6.90;;;;;;;6.40;98.91;103060.94;5073351;28;20637;-74
2022/11/12 06:27:59;;;;;;;8.18;7.38;;;;;;;6.55;98.26;103069.09;5077242;28;20115;-74
2022/11/12 06:30:24;;;;;;;8.75;7.60;;;;;;;6.47;98.31;103061.38;5077798;28;20035;-74
2022/11/12 06:32:50;;;;;;;7.63;6.68;;;;;;;6.66;99.43;103056.72;5081632;28;20393;-75
2022/11/12 06:35:17;;;;;;;8.80;7.78;;;;;;;6.59;97.18;103072.09;5084743;28;20035;-75
2022/11/12 06:37:45;;;;;;;9.32;7.80;;;;;;;6.55;97.68;103074.66;5082714;28;20051;-75
2022/11/12 06:40:11;;;;;;;8.27;7.15;;;;;;;6.42;97.81;103073.41;5082112;28;20024;-74
2022/11/12 06:42:36;;;;;;;11.02;8.60;;;;;;;6.51;97.45;103080.00;5085595;28;20453;-75
2022/11/12 06:45:01;;;;;;;11.80;8.48;;;;;;;6.37;97.83;103067.91;5081322;28;20058;-75
2022/11/12 06:47:27;;;;;;;8.80;7.40;;;;;;;6.44;97.97;103075.91;5063246;28;20373;-75
2022/11/12 06:49:52;;;;;;;8.93;7.43;;;;;;;6.41;96.76;103082.91;5085351;28;20024;-75
2022/11/12 06:52:17;;;;;;;9.60;7.45;;;;;;;6.49;96.48;103084.19;5081729;28;20082;-75
2022/11/12 06:54:43;;;;;;;9.73;7.97;;;;;;;6.31;97.04;103077.44;5079136;28;20058;-76
2022/11/12 06:57:08;;;;;;;10.65;8.13;;;;;;;6.31;97.64;103069.91;5081784;28;20090;-75
2022/11/12 06:59:34;;;;;;;11.25;8.73;;;;;;;6.33;97.44;103082.72;5068220;28;20042;-75
2022/11/12 07:01:59;;;;;;;11.48;8.35;;;;;;;6.20;98.04;103087.00;5077456;28;20527;-75
2022/11/12 07:04:24;;;;;;;13.52;8.63;;;;;;;6.33;97.08;103091.06;5074626;28;20039;-75
2022/11/12 07:06:50;;;;;;;10.07;8.55;;;;;;;6.37;97.58;103089.34;5082061;28;20189;-75
2022/11/12 07:09:15;;;;;;;12.38;9.30;;;;;;;6.36;96.96;103093.25;5080999;28;20028;-75
2022/11/12 07:11:40;;;;;;;12.65;8.68;;;;;;;6.10;98.08;103085.16;5078786;28;20085;-75
2022/11/12 07:14:06;;;;;;;15.15;10.10;;;;;;;6.16;98.64;103092.34;5072506;28;20048;-75
2022/11/12 07:16:32;;;;;;;13.27;9.18;;;;;;;6.20;98.60;103090.63;5072376;28;20390;-75
2022/11/12 07:18:58;;;;;;;11.77;9.07;;;;;;;6.23;98.52;103103.94;5077740;28;20364;-75
2022/11/12 07:21:23;;;;;;;13.90;8.88;;;;;;;6.22;98.34;103102.28;5055584;28;20062;-75
2022/11/12 07:23:49;;;;;;;13.40;9.30;;;;;;;6.29;97.97;103097.19;5075446;28;20684;-76
2022/11/12 07:26:17;;;;;;;15.65;9.98;;;;;;;6.22;97.57;103107.84;5055582;28;20028;-75
2022/11/12 07:28:47;;;;;;;13.82;9.25;;;;;;;6.06;98.78;103098.81;5062139;28;20071;-75
2022/11/12 07:31:14;;;;;;;13.52;9.70;;;;;;;6.27;97.84;103096.66;5080173;28;20088;-75
2022/11/12 07:33:40;;;;;;;14.55;9.32;;;;;;;6.33;97.34;103104.97;5075802;28;20054;-76
2022/11/12 07:36:08;;;;;;;11.50;8.43;;;;;;;6.27;97.43;103118.09;5080004;28;20585;-75
2022/11/12 07:38:35;;;;;;;13.43;8.95;;;;;;;6.30;97.36;103104.44;5076583;28;20030;-75
2022/11/12 07:41:09;;;;;;;14.45;10.57;;;;;;;6.27;96.89;103121.69;5075959;28;20061;-75
2022/11/12 07:43:35;;;;;;;14.63;10.35;;;;;;;6.27;96.70;103116.13;5072553;28;20036;-75
2022/11/12 07:46:06;;;;;;;15.43;9.40;;;;;;;6.27;96.72;103120.88;5079656;28;20042;-75
2022/11/12 07:48:32;;;;;;;14.70;9.82;;;;;;;6.28;97.20;103112.25;5074779;28;20138;-75
2022/11/12 07:51:02;;;;;;;11.27;8.55;;;;;;;6.27;97.39;103116.13;5074178;28;20077;-75
2022/11/12 07:53:28;;;;;;;12.43;10.10;;;;;;;6.35;96.98;103123.00;5055549;28;20107;-75
2022/11/12 07:55:55;;;;;;;12.95;9.35;;;;;;;6.22;98.03;103123.69;5059421;28;20684;-74
2022/11/12 07:58:21;;;;;;;12.38;8.80;;;;;;;6.33;98.18;103125.25;5061107;28;20115;-74
2022/11/12 08:00:47;;;;;;;12.63;8.82;;;;;;;6.28;98.21;103134.50;5077448;28;20072;-74
2022/11/12 08:03:12;;;;;;;13.43;8.77;;;;;;;6.33;97.81;103136.38;5064425;28;20524;-75
2022/11/12 08:05:37;;;;;;;14.18;9.85;;;;;;;6.22;98.13;103135.66;5074940;28;20032;-74
2022/11/12 08:08:03;;;;;;;14.60;10.05;;;;;;;6.30;98.38;103137.81;5061722;28;20036;-75
2022/11/12 08:10:28;;;;;;;11.90;9.88;;;;;;;6.33;98.69;103143.91;5075231;28;20051;-74
2022/11/12 08:12:55;;;;;;;15.30;9.73;;;;;;;6.29;99.52;103141.69;5082258;28;20070;-74
2022/11/12 08:15:21;;;;;;;15.43;9.77;;;;;;;6.37;98.69;103143.03;5079091;28;20602;-75
2022/11/12 08:17:46;;;;;;;12.00;9.95;;;;;;;6.35;99.59;103144.44;5075564;28;20024;-74
2022/11/12 08:20:12;;;;;;;13.75;9.80;;;;;;;6.36;99.65;103135.78;5072965;28;20028;-74
2022/11/12 08:22:37;;;;;;;12.82;10.25;;;;;;;6.29;100.00;103136.13;5060860;28;20083;-75
2022/11/12 08:25:03;;;;;;;14.48;9.80;;;;;;;6.33;100.00;103127.22;5062202;28;20449;-75
2022/11/12 08:27:28;;;;;;;13.30;9.38;;;;;;;6.25;100.00;103129.50;5079638;28;20503;-74
2022/11/12 08:29:53;;;;;;;13.25;9.10;;;;;;;6.35;100.00;103139.72;5071424;28;20032;-75
2022/11/12 08:32:18;;;;;;;15.63;10.43;;;;;;;6.47;99.69;103142.06;5079059;28;20081;-74
2022/11/12 08:34:44;;;;;;;13.35;9.20;;;;;;;6.48;100.00;103132.63;5058590;28;20031;-74
2022/11/12 08:37:09;;;;;;;14.40;9.05;;;;;;;6.55;99.93;103147.00;5060877;28;20030;-75
2022/11/12 08:39:34;;;;;;;14.25;9.50;;;;;;;6.58;99.90;103142.78;5060023;28;20024;-75
2022/11/12 08:42:00;;;;;;;13.30;8.52;;;;;;;6.56;100.00;103142.28;5061117;28;20463;-74
2022/11/12 08:44:25;;;;;;;14.07;10.52;;;;;;;6.56;100.00;103147.84;5085601;28;20024;-75
2022/11/12 08:46:50;;;;;;;12.63;9.35;;;;;;;6.63;100.00;103146.34;5080879;28;20119;-74
2022/11/12 08:49:16;;;;;;;15.43;9.50;;;;;;;6.67;100.00;103154.94;5076079;28;20035;-75
2022/11/12 08:51:41;;;;;;;13.07;9.35;;;;;;;6.65;100.00;103151.63;5069536;28;20391;-74
2022/11/12 08:54:06;;;;;;;15.85;9.55;;;;;;;6.69;100.00;103147.13;5080699;28;20028;-75
2022/11/12 08:56:32;;;;;;;13.48;8.68;;;;;;;6.76;100.00;103150.38;5080684;28;20031;-74
2022/11/12 08:58:58;;;;;;;15.15;9.88;;;;;;;6.92;100.00;103159.38;5075843;28;20099;-74
2022/11/12 09:01:24;;;;;;;17.05;10.05;;;;;;;7.23;100.00;103153.41;5072214;28;20060;-74
2022/11/12 09:03:49;;;;;;;13.80;10.02;;;;;;;7.21;100.00;103161.22;5060283;28;20474;-75
2022/11/12 09:06:15;;;;;;;15.23;11.48;;;;;;;6.94;100.00;103157.13;5081131;28;20028;-75
2022/11/12 09:08:40;;;;;;;14.60;9.93;;;;;;;6.91;100.00;103157.72;5077952;28;20617;-75
2022/11/12 09:11:06;;;;;;;16.20;9.75;;;;;;;6.90;100.00;103159.69;5079202;28;20439;-75
2022/11/12 09:13:32;;;;;;;16.17;11.98;;;;;;;7.35;100.00;103156.59;5055176;28;20130;-75
2022/11/12 09:16:03;;;;;;;18.85;12.93;;;;;;;7.06;100.00;103160.34;5057240;28;20020;-75
2022/11/12 09:18:29;;;;;;;21.63;12.43;;;;;;;6.85;100.00;103156.97;5077670;28;20051;-75
2022/11/12 09:21:06;;;;;;;19.80;13.50;;;;;;;6.72;100.00;103154.88;5084100;28;20086;-75
2022/11/12 09:23:33;;;;;;;18.15;12.00;;;;;;;6.75;100.00;103150.69;5064847;28;20024;-74
2022/11/12 09:25:59;;;;;;;13.82;10.80;;;;;;;6.84;100.00;103157.25;5054353;28;20149;-74
2022/11/12 09:28:24;;;;;;;18.02;12.52;;;;;;;6.92;100.00;103148.25;5076611;28;20756;-75
2022/11/12 09:30:51;;;;;;;22.15;14.10;;;;;;;6.95;100.00;103147.66;5074264;28;20434;-75
2022/11/12 09:33:19;;;;;;;22.55;14.10;;;;;;;6.93;100.00;103144.31;5059327;28;20071;-74
2022/11/12 09:35:46;;;;;;;18.73;13.23;;;;;;;6.86;100.00;103138.31;5076642;28;20570;-74
2022/11/12 09:38:13;;;;;;;23.25;14.20;;;;;;;6.85;100.00;103147.75;5075214;28;20039;-74
2022/11/12 09:40:47;;;;;;;24.08;14.65;;;;;;;6.87;100.00;103146.38;5076547;28;20032;-74
2022/11/12 09:43:44;;;;;;;16.60;11.52;;;;;;;7.00;100.00;103147.59;5069153;28;20035;-74
2022/11/12 09:46:34;;;;;;;24.25;15.35;;;;;;;7.05;100.00;103143.91;5062431;28;20067;-74
2022/11/12 09:49:13;;;;;;;20.85;13.48;;;;;;;7.05;100.00;103139.16;5057717;28;20078;-74
2022/11/12 09:51:45;;;;;;;25.90;15.55;;;;;;;7.09;100.00;103143.00;5069544;28;20031;-74
2022/11/12 09:54:18;;;;;;;26.00;15.68;;;;;;;7.07;100.00;103136.91;5067312;28;20028;-74
2022/11/12 09:56:43;;;;;;;;;;;;;;;7.10;100.00;103147.47;5065664;28;20538;-72
2022/11/12 09:59:12;;;;;;;20.35;11.38;;;;;;;7.10;100.00;103150.25;5066792;28;19993;-74
2022/11/12 10:01:48;;;;;;;23.00;14.55;;;;;;;7.27;100.00;103148.91;5067852;28;20020;-74
2022/11/12 10:04:33;;;;;;;22.45;15.10;;;;;;;7.36;100.00;103149.91;5072640;28;20375;-75
2022/11/12 10:07:12;;;;;;;21.90;13.40;;;;;;;7.34;100.00;103154.94;5075621;28;20550;-74
2022/11/12 10:10:01;;;;;;;21.85;14.18;;;;;;;7.31;100.00;103159.13;5075235;28;20028;-74
2022/11/12 10:12:44;;;;;;;34.22;16.13;;;;;;;7.38;100.00;103150.44;5072325;28;20048;-74
2022/11/12 10:18:43;;;;;;;22.63;14.80;;;;;;;7.46;100.00;103157.25;5072019;28;20031;-74
2022/11/12 10:21:46;;;;;;;21.40;15.00;;;;;;;7.47;100.00;103159.75;5059652;28;20085;-74
2022/11/12 10:24:11;;;;;;;22.67;14.88;;;;;;;7.50;100.00;103156.34;5078114;28;20024;-75
2022/11/12 10:26:38;;;;;;;21.02;13.90;;;;;;;7.58;100.00;103156.81;5075227;28;20369;-74
2022/11/12 10:29:12;;;;;;;21.88;15.60;;;;;;;7.75;100.00;103154.31;5079013;28;20518;-74
2022/11/12 10:31:38;;;;;;;23.33;14.70;;;;;;;7.82;100.00;103148.34;5069708;28;20081;-75
2022/11/12 10:34:12;;;;;;;24.25;16.05;;;;;;;7.96;100.00;103146.44;5078574;28;20436;-74
2022/11/12 10:36:42;;;;;;;24.92;15.38;;;;;;;8.05;100.00;103141.00;5075674;28;20060;-75
2022/11/12 10:39:08;;;;;;;24.20;15.23;;;;;;;7.99;100.00;103143.06;5076943;28;20032;-74
2022/11/12 10:41:34;;;;;;;23.90;15.63;;;;;;;8.14;100.00;103133.59;5057347;28;20029;-73
2022/11/12 10:44:05;;;;;;;20.25;13.65;;;;;;;8.31;100.00;103133.03;5077903;28;20032;-74
2022/11/12 10:46:34;;;;;;;26.25;15.23;;;;;;;8.26;100.00;103128.34;5073959;28;20032;-74
2022/11/12 10:49:02;;;;;;;24.45;14.50;;;;;;;8.50;100.00;103130.19;5060812;28;20036;-75
2022/11/12 10:51:29;;;;;;;21.95;14.25;;;;;;;8.55;100.00;103130.91;5077107;28;20032;-74
2022/11/12 10:53:55;;;;;;;21.80;13.57;;;;;;;8.54;100.00;103129.25;5069492;28;20036;-75
2022/11/12 10:56:29;;;;;;;24.63;14.75;;;;;;;8.62;100.00;103122.13;5078792;28;20036;-75
2022/11/12 10:59:19;;;;;;;19.35;13.27;;;;;;;8.71;100.00;103109.09;5079733;28;20054;-75
2022/11/12 11:01:52;;;;;;;27.08;14.70;;;;;;;8.81;100.00;103118.38;5068043;28;20031;-74
2022/11/12 11:04:32;;;;;;;22.00;12.85;;;;;;;8.71;100.00;103113.84;5076082;28;20475;-74
2022/11/12 11:07:23;;;;;;;21.40;13.90;;;;;;;8.95;100.00;103114.44;5070693;28;20397;-75
2022/11/12 11:09:54;;;;;;;19.17;13.35;;;;;;;8.97;100.00;103116.13;5076026;28;20489;-75
2022/11/12 11:12:32;;;;;;;23.13;13.75;;;;;;;9.05;100.00;103121.78;5058227;28;20064;-74
2022/11/12 11:15:26;;;;;;;21.40;13.73;;;;;;;9.39;100.00;103120.47;5077396;28;20024;-74
2022/11/12 11:17:52;;;;;;;22.42;14.23;;;;;;;9.34;100.00;103115.84;5033562;28;20036;-74
2022/11/12 11:20:28;;;;;;;21.05;14.07;;;;;;;9.42;100.00;103116.22;5072185;28;20375;-73
2022/11/12 11:22:55;;;;;;;21.58;13.63;;;;;;;9.36;100.00;103110.75;5070913;28;20028;-74
2022/11/12 11:25:26;;;;;;;22.50;14.13;;;;;;;9.20;100.00;103106.66;5073170;28;20771;-74
2022/11/12 11:28:10;;;;;;;24.55;14.02;;;;;;;9.20;100.00;103097.44;5072556;28;20483;-74
2022/11/12 11:30:50;;;;;;;25.52;15.63;;;;;;;9.47;100.00;103094.56;5076515;28;20102;-75
2022/11/12 11:33:19;;;;;;;19.40;13.55;;;;;;;9.48;100.00;103104.59;5052757;28;20035;-74
2022/11/12 11:35:44;;;;;;;18.35;13.38;;;;;;;9.52;100.00;103105.63;5076177;28;20024;-74
2022/11/12 11:38:37;;;;;;;21.08;13.65;;;;;;;9.33;100.00;103102.97;5079525;28;20557;-75
2022/11/12 11:41:46;;;;;;;18.38;12.50;;;;;;;9.57;100.00;103097.13;5076622;28;20910;-74
2022/11/12 11:44:38;;;;;;;23.40;14.15;;;;;;;9.76;100.00;103093.28;5059197;28;20024;-74
2022/11/12 11:47:22;;;;;;;19.88;13.40;;;;;;;9.79;100.00;103098.25;5075998;28;20023;-74
2022/11/12 11:50:16;;;;;;;20.88;14.20;;;;;;;9.84;100.00;103092.53;5076887;28;20546;-74
2022/11/12 11:53:25;;;;;;;22.65;13.00;;;;;;;9.83;100.00;103082.50;5077743;28;20024;-73
2022/11/12 11:55:56;;;;;;;21.88;14.05;;;;;;;9.74;100.00;103096.41;5048163;28;20407;-74
2022/11/12 11:58:30;;;;;;;20.38;13.70;;;;;;;9.75;100.00;103098.06;5066654;28;20162;-74
2022/11/12 12:01:19;;;;;;;19.58;13.75;;;;;;;9.82;100.00;103097.59;5070875;28;20059;-74
2022/11/12 12:03:58;;;;;;;16.42;12.48;;;;;;;9.89;100.00;103092.41;5073499;28;20074;-74
2022/11/12 12:06:27;;;;;;;19.83;14.10;;;;;;;9.75;100.00;103092.47;5065934;28;20032;-74
2022/11/12 12:09:05;;;;;;;18.42;13.60;;;;;;;10.03;100.00;103083.09;5080269;28;20024;-74
2022/11/12 12:11:56;;;;;;;19.77;14.73;;;;;;;10.14;100.00;103082.50;5071101;28;20444;-74
2022/11/12 12:15:03;;;;;;;18.90;14.07;;;;;;;10.05;100.00;103083.59;5080627;28;20036;-75
2022/11/12 12:17:46;;;;;;;18.92;12.52;;;;;;;10.38;99.79;103084.13;5075043;28;20024;-74
2022/11/12 12:20:14;;;;;;;;;;;;;;;10.65;95.99;103085.06;5064112;28;20111;-74
2022/11/12 12:23:03;;;;;;;20.00;11.68;;;;;;;10.58;94.83;103079.91;5083624;28;20371;-74
2022/11/12 12:25:31;;;;;;;13.13;9.93;;;;;;;10.80;94.43;103081.00;5082457;28;20508;-75
2022/11/12 12:28:21;;;;;;;14.13;11.23;;;;;;;10.81;95.08;103071.41;5057775;28;20026;-74
2022/11/12 12:30:50;;;;;;;15.60;11.40;;;;;;;11.02;92.72;103066.84;5061619;28;20499;-74
2022/11/12 12:33:52;;;;;;;15.63;10.45;;;;;;;10.75;95.50;103065.13;5063964;28;20046;-74
2022/11/12 12:36:39;;;;;;;17.73;11.25;;;;;;;10.60;96.05;103066.41;5080652;28;20024;-73
2022/11/12 12:39:21;;;;;;;16.77;10.68;;;;;;;10.82;94.14;103053.47;5084229;28;20024;-74
2022/11/12 12:42:02;;;;;;;14.85;10.70;;;;;;;10.73;95.05;103059.03;5082387;28;20024;-74
2022/11/12 12:47:18;;;;;;;14.20;10.98;;;;;;;10.94;93.66;103064.84;5078165;28;20071;-74
2022/11/12 12:49:46;;;;;;;19.40;12.00;;;;;;;10.95;94.37;103064.53;5074375;28;20081;-74
2022/11/12 12:52:14;;;;;;;15.57;11.07;;;;;;;10.97;95.99;103048.22;5063161;28;20035;-74
2022/11/12 12:54:39;;;;;;;22.48;12.18;;;;;;;11.00;95.98;103049.53;5070789;28;20471;-74
2022/11/12 12:57:36;;;;;;;17.67;11.77;;;;;;;10.74;99.06;103044.72;5082508;28;20039;-74
2022/11/12 13:00:37;;;;;;;18.58;12.77;;;;;;;10.54;100.00;103043.34;5079319;28;20043;-74
2022/11/12 13:03:03;;;;;;;20.38;13.27;;;;;;;11.00;98.08;103041.13;5078657;28;20031;-74
2022/11/12 13:05:34;;;;;;;19.73;12.80;;;;;;;10.78;99.95;103040.09;5065701;28;20032;-74
2022/11/12 13:08:05;;;;;;;23.30;13.35;;;;;;;11.03;97.43;103043.28;5081795;28;20020;-74
2022/11/12 13:10:51;;;;;;;25.00;14.18;;;;;;;11.01;98.35;103039.97;5079730;28;20032;-74
2022/11/12 13:13:16;;;;;;;19.63;13.05;;;;;;;10.97;99.33;103039.00;5080435;28;20059;-74
2022/11/12 13:15:44;;;;;;;18.92;13.70;;;;;;;10.87;99.75;103026.09;5082770;28;20387;-75
2022/11/12 13:18:10;;;;;;;18.85;13.23;;;;;;;10.69;100.00;103030.88;5082576;28;20107;-74
2022/11/12 13:20:38;;;;;;;17.98;12.05;;;;;;;11.11;98.03;103031.25;5066858;28;20467;-74
2022/11/12 13:23:08;;;;;;;17.40;12.90;;;;;;;11.29;97.12;103020.84;5089507;28;20131;-74
2022/11/12 13:25:34;;;;;;;18.25;12.63;;;;;;;11.24;97.64;103025.81;5085057;28;20032;-73
2022/11/12 13:28:05;;;;;;;21.45;13.52;;;;;;;11.24;97.25;103031.44;5066370;28;20438;-74
2022/11/12 13:30:30;;;;;;;18.73;12.73;;;;;;;11.24;98.13;103031.44;5080062;28;20033;-75
2022/11/12 13:32:57;;;;;;;18.20;13.60;;;;;;;11.45;96.38;103034.34;5086664;28;20536;-74
2022/11/12 13:35:26;;;;;;;19.38;12.55;;;;;;;11.08;98.89;103025.47;5081489;28;20028;-74
2022/11/12 13:37:55;;;;;;;18.77;13.57;;;;;;;11.16;98.95;103021.84;5086345;28;20024;-74
2022/11/12 13:40:29;;;;;;;18.80;13.90;;;;;;;11.34;97.88;103023.50;5069627;28;20489;-75
2022/11/12 13:43:07;;;;;;;17.02;12.38;;;;;;;11.30;98.68;103016.91;5081108;28;20453;-74
2022/11/12 13:45:41;;;;;;;18.08;12.65;;;;;;;11.22;99.08;103019.72;5085833;28;20038;-74
2022/11/12 13:48:08;;;;;;;18.85;13.73;;;;;;;11.11;99.16;103013.59;5088421;28;20031;-74
2022/11/12 13:50:33;;;;;;;19.30;12.48;;;;;;;10.97;100.00;103008.16;5065871;28;20145;-74
2022/11/12 13:52:59;;;;;;;23.73;13.05;;;;;;;11.04;100.00;103008.47;5084240;28;20049;-74
2022/11/12 13:55:25;;;;;;;20.73;13.30;;;;;;;11.03;100.00;103017.25;5068429;28;20375;-74
2022/11/12 13:57:55;;;;;;;18.67;12.27;;;;;;;11.01;100.00;103011.16;5059527;28;20020;-75
2022/11/12 14:00:22;;;;;;;18.92;13.52;;;;;;;11.15;100.00;103018.22;5067128;28;20480;-75
2022/11/12 14:03:07;;;;;;;19.27;12.48;;;;;;;11.06;100.00;103011.78;5067308;28;20052;-75
2022/11/12 14:05:34;;;;;;;19.92;13.95;;;;;;;10.83;100.00;103007.47;5078600;28;20470;-74
2022/11/12 14:08:28;;;;;;;18.25;12.88;;;;;;;11.12;100.00;103004.88;5062861;28;20040;-74
2022/11/12 14:11:44;;;;;;;18.42;13.02;;;;;;;10.93;100.00;102996.78;5075292;28;20032;-75
2022/11/12 14:14:39;;;;;;;20.35;14.63;;;;;;;10.93;100.00;102998.75;5000528;28;20650;-74
2022/11/12 14:17:34;;;;;;;18.92;13.55;;;;;;;11.04;100.00;103002.06;5077690;28;20467;-73
2022/11/12 14:20:18;;;;;;;19.80;13.73;;;;;;;10.87;100.00;103008.47;5073611;28;20165;-73
2022/11/12 14:22:44;;;;;;;21.92;13.07;;;;;;;11.06;100.00;103000.56;5075622;28;20728;-75
2022/11/12 14:25:20;;;;;;;19.00;13.63;;;;;;;11.06;100.00;103000.56;5079639;28;20042;-74
2022/11/12 14:27:48;;;;;;;20.02;13.27;;;;;;;11.27;100.00;103005.53;5083454;28;20036;-75
2022/11/12 14:30:20;;;;;;;24.33;12.95;;;;;;;11.34;100.00;102997.41;5079631;28;20130;-74
2022/11/12 14:32:50;;;;;;;24.57;13.07;;;;;;;11.03;100.00;102990.03;5078814;28;20032;-75
2022/11/12 14:35:27;;;;;;;16.33;9.95;;;;;;;11.15;100.00;102987.41;5073268;28;20032;-74
2022/11/12 14:37:59;;;;;;;12.07;6.65;;;;;;;11.92;100.00;102992.38;5085371;28;20040;-75
2022/11/12 14:40:27;;;;;;;15.93;11.60;;;;;;;11.37;100.00;102993.97;5077893;28;20130;-74
2022/11/12 14:42:53;;;;;;;18.48;13.93;;;;;;;11.39;100.00;102977.63;5075103;28;20020;-74
2022/11/12 14:45:21;;;;;;;20.70;11.82;;;;;;;11.07;100.00;102978.97;5070456;28;20484;-74
2022/11/12 14:47:50;;;;;;;19.50;7.20;;;;;;;12.93;100.00;102969.16;5081670;28;20024;-74
2022/11/12 14:50:30;;;;;;;20.38;12.20;;;;;;;11.90;98.56;102970.25;5062317;28;20483;-74
2022/11/12 14:53:21;;;;;;;21.13;13.65;;;;;;;11.21;100.00;102956.38;5073125;28;20049;-73
2022/11/12 14:55:50;;;;;;;20.75;13.20;;;;;;;10.90;100.00;102960.19;5072537;28;20479;-73
2022/11/12 14:58:18;;;;;;;18.55;12.85;;;;;;;10.71;100.00;102957.69;5075303;28;20123;-74
2022/11/12 15:00:46;;;;;;;16.98;11.90;;;;;;;10.70;100.00;102944.88;5056037;28;20055;-75
2022/11/12 15:03:17;;;;;;;16.83;11.85;;;;;;;10.56;100.00;102942.19;5078425;28;20031;-74
2022/11/12 15:06:07;;;;;;;19.30;12.23;;;;;;;10.66;100.00;102947.47;5061095;28;20433;-74
2022/11/12 15:08:35;;;;;;;18.05;13.05;;;;;;;10.48;100.00;102940.25;5079087;28;20472;-74
2022/11/12 15:11:25;;;;;;;21.58;13.32;;;;;;;10.43;100.00;102934.78;5078246;28;20507;-74
2022/11/12 15:13:53;;;;;;;22.63;12.80;;;;;;;10.42;100.00;102942.34;5062458;28;20044;-74
2022/11/12 15:16:22;;;;;;;19.27;13.35;;;;;;;10.35;100.00;102936.41;5075997;28;20128;-74
2022/11/12 15:19:14;;;;;;;23.92;13.73;;;;;;;10.22;100.00;102931.72;5078845;28;20486;-74
2022/11/12 15:21:51;;;;;;;18.98;12.98;;;;;;;10.18;100.00;102938.00;5058769;28;20109;-73
2022/11/12 15:24:24;;;;;;;17.92;12.35;;;;;;;10.19;100.00;102936.00;5075822;28;20033;-74
2022/11/12 15:26:50;;;;;;;16.17;10.85;;;;;;;10.03;100.00;102946.00;5077456;28;20505;-74
2022/11/12 15:29:24;;;;;;;17.92;12.52;;;;;;;10.02;100.00;102938.78;5060654;28;20030;-73
2022/11/12 15:32:11;;;;;;;17.85;13.07;;;;;;;10.00;100.00;102939.09;5075340;28;20566;-75
2022/11/12 15:34:39;;;;;;;20.20;12.90;;;;;;;9.97;100.00;102940.56;5066034;28;20094;-74
2022/11/12 15:37:10;;;;;;;19.23;12.93;;;;;;;9.92;100.00;102940.69;5058013;28;20042;-74
2022/11/12 15:39:43;;;;;;;19.23;13.27;;;;;;;9.91;100.00;102950.25;5074501;28;20034;-74
2022/11/12 15:42:14;;;;;;;;;;;;;;;9.89;100.00;102940.53;5073638;28;20023;-74
2022/11/12 15:44:40;;;;;;;18.13;12.55;;;;;;;9.84;100.00;102943.44;5073120;28;19926;-74
2022/11/12 15:47:13;;;;;;;17.88;12.75;;;;;;;9.81;100.00;102942.13;5072670;28;20029;-74
2022/11/12 15:49:52;;;;;;;22.42;12.73;;;;;;;9.77;100.00;102938.34;5059324;28;20055;-74
2022/11/12 15:52:18;;;;;;;14.38;10.50;;;;;;;9.71;100.00;102942.41;5070572;28;20040;-74
2022/11/12 15:54:44;;;;;;;17.55;10.52;;;;;;;9.68;100.00;102945.88;5059709;28;20035;-74
2022/11/12 15:57:17;;;;;;;17.75;10.52;;;;;;;9.66;100.00;102945.38;5070555;28;20028;-73
2022/11/12 15:59:44;;;;;;;18.38;12.75;;;;;;;9.63;100.00;102943.19;5083917;28;20471;-74
2022/11/12 16:02:11;;;;;;;13.85;10.27;;;;;;;9.64;100.00;102956.84;5072277;28;20454;-74
2022/11/12 16:04:37;;;;;;;15.90;11.00;;;;;;;9.62;100.00;102944.34;5081492;28;20031;-73
2022/11/12 16:07:05;;;;;;;21.73;13.15;;;;;;;9.56;100.00;102949.25;5060020;28;20032;-73
2022/11/12 16:09:30;;;;;;;20.13;12.55;;;;;;;9.56;100.00;102944.47;5076882;28;20531;-74
2022/11/12 16:11:57;;;;;;;18.65;12.82;;;;;;;9.51;100.00;102936.22;5062473;28;20126;-74
2022/11/12 16:14:23;;;;;;;16.75;12.57;;;;;;;9.47;100.00;102937.19;5075277;28;20040;-74
2022/11/12 16:16:48;;;;;;;20.73;13.70;;;;;;;9.46;100.00;102933.56;5063030;28;20136;-73
2022/11/12 16:19:14;;;;;;;20.73;12.68;;;;;;;9.44;100.00;102935.03;5085166;28;20046;-74
2022/11/12 16:21:40;;;;;;;20.85;12.25;;;;;;;9.43;100.00;102934.22;5077591;28;20064;-74
2022/11/12 16:24:06;;;;;;;17.15;12.10;;;;;;;9.40;100.00;102932.03;5084245;28;20061;-73
2022/11/12 16:26:32;;;;;;;17.80;12.52;;;;;;;9.34;100.00;102930.56;5083331;28;20134;-74
2022/11/12 16:28:58;;;;;;;18.63;11.60;;;;;;;9.33;100.00;102923.28;5060715;28;20031;-74
2022/11/12 16:31:24;;;;;;;17.80;12.18;;;;;;;9.29;100.00;102923.09;5080295;28;20494;-74
2022/11/12 16:33:49;;;;;;;18.38;13.50;;;;;;;9.26;100.00;102922.94;5085739;28;20028;-73
2022/11/12 16:36:15;;;;;;;20.42;12.40;;;;;;;9.24;100.00;102914.84;5083221;28;20036;-73
2022/11/12 16:38:40;;;;;;;22.20;12.32;;;;;;;9.21;100.00;102928.63;5071210;28;20387;-74
2022/11/12 16:41:10;;;;;;;23.52;13.40;;;;;;;9.20;100.00;102927.81;5087444;28;20495;-73
2022/11/12 16:43:36;;;;;;;19.52;12.77;;;;;;;9.21;100.00;102926.66;5062154;28;20032;-73
2022/11/12 16:46:12;;;;;;;19.77;12.80;;;;;;;9.20;100.00;102924.19;5070424;28;20807;-74
2022/11/12 16:48:38;;;;;;;19.25;12.70;;;;;;;9.18;100.00;102934.88;5083475;28;20032;-73
2022/11/12 16:51:04;;;;;;;19.80;12.73;;;;;;;9.14;100.00;102929.91;5068525;28;20024;-73
2022/11/12 16:53:29;;;;;;;25.05;15.07;;;;;;;9.13;100.00;102936.66;5085977;28;20085;-73
2022/11/12 16:55:56;;;;;;;21.25;13.40;;;;;;;9.12;100.00;102936.97;5088573;28;20032;-73
2022/11/12 16:58:21;;;;;;;20.63;13.98;;;;;;;9.09;100.00;102930.03;5081690;28;20490;-73
2022/11/12 17:00:49;;;;;;;22.10;14.00;;;;;;;9.09;100.00;102946.81;5085217;28;20024;-73
2022/11/12 17:03:14;;;;;;;20.67;13.73;;;;;;;9.06;100.00;102935.44;5080961;28;20467;-76
2022/11/12 17:05:40;;;;;;;25.05;14.88;;;;;;;9.05;100.00;102937.41;5076367;28;20044;-73
2022/11/12 17:08:08;;;;;;;25.15;14.52;;;;;;;9.06;100.00;102932.63;5080265;28;20044;-73
2022/11/12 17:10:33;;;;;;;20.23;13.57;;;;;;;9.01;100.00;102925.22;5076409;28;21177;-73
2022/11/12 17:12:58;;;;;;;21.35;14.20;;;;;;;9.01;100.00;102936.38;5077798;28;20036;-73
2022/11/12 17:15:24;;;;;;;28.67;15.52;;;;;;;9.00;100.00;102940.31;5079345;28;20071;-73
2022/11/12 17:17:52;;;;;;;26.67;16.50;;;;;;;9.00;100.00;102926.34;5079369;28;20056;-73
2022/11/12 17:20:17;;;;;;;25.38;14.80;;;;;;;8.98;100.00;102923.06;5081702;28;20020;-73
2022/11/12 17:22:43;;;;;;;25.40;16.25;;;;;;;8.94;100.00;102922.06;5083824;28;20449;-73
2022/11/12 17:25:09;;;;;;;23.85;14.85;;;;;;;8.95;100.00;102920.91;5089075;28;20020;-73
2022/11/12 17:27:35;;;;;;;25.05;15.55;;;;;;;8.95;100.00;102923.69;5083073;28;20097;-73
2022/11/12 17:30:00;;;;;;;21.52;14.77;;;;;;;8.94;100.00;102916.47;5074041;28;20035;-73
2022/11/12 17:32:26;;;;;;;23.80;15.93;;;;;;;8.91;100.00;102917.09;5085588;28;20032;-73
2022/11/12 17:34:51;;;;;;;24.80;16.90;;;;;;;8.91;100.00;102911.50;5083315;28;20521;-73
2022/11/12 17:37:17;;;;;;;21.10;14.65;;;;;;;8.90;100.00;102921.03;5078419;28;20051;-73
2022/11/12 17:39:43;;;;;;;21.00;14.80;;;;;;;8.87;100.00;102921.66;5080768;28;20095;-73
2022/11/12 17:42:08;;;;;;;24.67;15.13;;;;;;;8.84;100.00;102928.69;5081439;28;20386;-73